sensor_id;sensor_type;location;lat;lon;timestamp;pressure;altitude;pressure_sealevel;temperature;humidity
20145;BME280;10233;50.814;6.590;2022-08-16T00:00:44;99294.88;;;19.16;100.00
20145;BME280;10233;50.814;6.590;2022-08-16T00:01:45;99292.22;;;19.11;100.00
20145;BME280;10233;50.814;6.590;2022-08-16T00:02:46;99300.28;;;19.11;100.00
20145;BME280;10233;50.814;6.590;2022-08-16T00:03:47;99302.13;;;19.15;100.00
20145;BME280;10233;50.814;6.590;2022-08-16T00:04:47;99304.56;;;19.17;100.00
20145;BME280;10233;50.814;6.590;2022-08-16T00:05:48;99298.88;;;19.18;100.00
20145;BME280;10233;50.814;6.590;2022-08-16T00:06:48;99297.78;;;19.24;100.00
20145;BME280;10233;50.814;6.590;2022-08-16T00:07:49;99302.91;;;19.21;100.00
20145;BME280;10233;50.814;6.590;2022-08-16T00:08:50;99301.56;;;19.23;100.00
20145;BME280;10233;50.814;6.590;2022-08-16T00:09:51;99299.34;;;19.30;100.00
20145;BME280;10233;50.814;6.590;2022-08-16T00:10:51;99302.03;;;19.30;100.00
20145;BME280;10233;50.814;6.590;2022-08-16T00:11:52;99298.28;;;19.31;100.00
20145;BME280;10233;50.814;6.590;2022-08-16T00:12:53;99297.75;;;19.29;100.00
20145;BME280;10233;50.814;6.590;2022-08-16T00:13:53;99301.31;;;19.25;100.00
20145;BME280;10233;50.814;6.590;2022-08-16T00:14:55;99301.53;;;19.28;100.00
20145;BME280;10233;50.814;6.590;2022-08-16T00:15:56;99302.00;;;19.35;100.00
20145;BME280;10233;50.814;6.590;2022-08-16T00:16:57;99304.97;;;19.39;100.00
20145;BME280;10233;50.814;6.590;2022-08-16T00:17:57;99298.66;;;19.48;100.00
20145;BME280;10233;50.814;6.590;2022-08-16T00:18:58;99305.25;;;19.37;100.00
20145;BME280;10233;50.814;6.590;2022-08-16T00:19:59;99302.00;;;19.35;100.00
20145;BME280;10233;50.814;6.590;2022-08-16T00:20:59;99308.69;;;19.43;100.00
20145;BME280;10233;50.814;6.590;2022-08-16T00:22:00;99305.25;;;19.37;100.00
20145;BME280;10233;50.814;6.590;2022-08-16T00:23:01;99307.00;;;19.52;100.00
20145;BME280;10233;50.814;6.590;2022-08-16T00:24:01;99308.69;;;19.43;100.00
20145;BME280;10233;50.814;6.590;2022-08-16T00:25:05;99305.19;;;19.42;100.00
20145;BME280;10233;50.814;6.590;2022-08-16T00:26:07;99314.44;;;19.36;100.00
20145;BME280;10233;50.814;6.590;2022-08-16T00:27:07;99299.75;;;19.47;100.00
20145;BME280;10233;50.814;6.590;2022-08-16T00:28:09;99306.81;;;19.43;100.00
20145;BME280;10233;50.814;6.590;2022-08-16T00:29:13;99303.63;;;19.36;100.00
20145;BME280;10233;50.814;6.590;2022-08-16T00:30:14;99312.50;;;19.37;100.00
20145;BME280;10233;50.814;6.590;2022-08-16T00:31:15;99309.31;;;19.35;100.00
20145;BME280;10233;50.814;6.590;2022-08-16T00:32:15;99309.63;;;19.28;100.00
20145;BME280;10233;50.814;6.590;2022-08-16T00:33:17;99302.03;;;19.30;100.00
20145;BME280;10233;50.814;6.590;2022-08-16T00:34:19;99310.75;;;19.22;100.00
20145;BME280;10233;50.814;6.590;2022-08-16T00:35:31;99304.56;;;19.17;100.00
20145;BME280;10233;50.814;6.590;2022-08-16T00:36:32;99312.88;;;19.25;100.00
20145;BME280;10233;50.814;6.590;2022-08-16T00:37:33;99308.50;;;19.34;100.00
20145;BME280;10233;50.814;6.590;2022-08-16T00:38:33;99311.78;;;19.21;100.00
20145;BME280;10233;50.814;6.590;2022-08-16T00:39:34;99306.69;;;19.20;100.00
20145;BME280;10233;50.814;6.590;2022-08-16T00:40:40;99304.66;;;19.02;100.00
20145;BME280;10233;50.814;6.590;2022-08-16T00:41:43;99308.50;;;18.91;100.00
20145;BME280;10233;50.814;6.590;2022-08-16T00:42:43;99318.50;;;18.85;100.00
20145;BME280;10233;50.814;6.590;2022-08-16T00:43:46;99313.78;;;18.62;100.00
20145;BME280;10233;50.814;6.590;2022-08-16T00:44:54;99313.56;;;18.54;100.00
20145;BME280;10233;50.814;6.590;2022-08-16T00:46:24;99310.88;;;18.54;100.00
20145;BME280;10233;50.814;6.590;2022-08-16T00:47:26;99315.50;;;18.38;100.00
20145;BME280;10233;50.814;6.590;2022-08-16T00:48:29;99320.38;;;18.36;100.00
20145;BME280;10233;50.814;6.590;2022-08-16T00:49:32;99320.09;;;18.28;100.00
20145;BME280;10233;50.814;6.590;2022-08-16T00:50:34;99319.03;;;18.34;100.00
20145;BME280;10233;50.814;6.590;2022-08-16T00:51:35;99321.44;;;18.35;100.00
20145;BME280;10233;50.814;6.590;2022-08-16T00:52:35;99316.84;;;18.36;100.00
20145;BME280;10233;50.814;6.590;2022-08-16T00:53:37;99317.66;;;18.36;100.00
20145;BME280;10233;50.814;6.590;2022-08-16T00:54:37;99314.41;;;18.49;100.00
20145;BME280;10233;50.814;6.590;2022-08-16T00:55:42;99320.53;;;18.55;100.00
20145;BME280;10233;50.814;6.590;2022-08-16T00:56:46;99315.97;;;18.55;100.00
20145;BME280;10233;50.814;6.590;2022-08-16T00:57:50;99318.34;;;18.67;100.00
20145;BME280;10233;50.814;6.590;2022-08-16T00:58:52;99314.88;;;18.61;100.00
20145;BME280;10233;50.814;6.590;2022-08-16T00:59:53;99319.06;;;18.77;100.00
20145;BME280;10233;50.814;6.590;2022-08-16T01:00:53;99318.06;;;18.68;100.00
20145;BME280;10233;50.814;6.590;2022-08-16T01:01:54;99313.50;;;18.64;100.00
20145;BME280;10233;50.814;6.590;2022-08-16T01:02:57;99314.06;;;18.61;100.00
20145;BME280;10233;50.814;6.590;2022-08-16T01:03:59;99310.81;;;18.64;100.00
20145;BME280;10233;50.814;6.590;2022-08-16T01:05:00;99312.97;;;18.67;100.00
20145;BME280;10233;50.814;6.590;2022-08-16T01:06:02;99314.25;;;18.74;100.00
20145;BME280;10233;50.814;6.590;2022-08-16T01:07:05;99314.56;;;18.68;100.00
20145;BME280;10233;50.814;6.590;2022-08-16T01:08:08;99310.00;;;18.68;100.00
20145;BME280;10233;50.814;6.590;2022-08-16T01:09:09;99317.53;;;18.66;100.00
20145;BME280;10233;50.814;6.590;2022-08-16T01:10:10;99316.16;;;18.69;100.00
20145;BME280;10233;50.814;6.590;2022-08-16T01:11:11;99314.84;;;18.66;100.00
20145;BME280;10233;50.814;6.590;2022-08-16T01:12:11;99317.53;;;18.66;100.00
20145;BME280;10233;50.814;6.590;2022-08-16T01:13:21;99313.22;;;18.70;100.00
20145;BME280;10233;50.814;6.590;2022-08-16T01:14:24;99317.47;;;18.76;100.00
20145;BME280;10233;50.814;6.590;2022-08-16T01:15:26;99321.81;;;18.72;100.00
20145;BME280;10233;50.814;6.590;2022-08-16T01:16:28;99327.50;;;18.71;100.00
20145;BME280;10233;50.814;6.590;2022-08-16T01:17:29;99325.59;;;18.71;100.00
20145;BME280;10233;50.814;6.590;2022-08-16T01:18:37;99321.00;;;18.72;100.00
20145;BME280;10233;50.814;6.590;2022-08-16T01:19:44;99323.94;;;18.75;100.00
20145;BME280;10233;50.814;6.590;2022-08-16T01:21:15;99325.56;;;18.76;100.00
20145;BME280;10233;50.814;6.590;2022-08-16T01:22:30;99332.28;;;18.79;100.00
20145;BME280;10233;50.814;6.590;2022-08-16T01:24:03;99336.03;;;18.83;100.00
20145;BME280;10233;50.814;6.590;2022-08-16T01:25:11;99328.72;;;18.93;100.00
20145;BME280;10233;50.814;6.590;2022-08-16T01:26:13;99330.63;;;18.88;100.00
20145;BME280;10233;50.814;6.590;2022-08-16T01:28:47;99332.53;;;18.77;100.00
20145;BME280;10233;50.814;6.590;2022-08-16T01:30:56;99327.41;;;18.86;100.00
20145;BME280;10233;50.814;6.590;2022-08-16T01:31:58;99319.31;;;18.86;100.00
20145;BME280;10233;50.814;6.590;2022-08-16T01:33:03;99324.94;;;18.89;100.00
20145;BME280;10233;50.814;6.590;2022-08-16T01:34:06;99325.47;;;18.91;100.00
20145;BME280;10233;50.814;6.590;2022-08-16T01:35:12;99324.94;;;18.89;100.00
20145;BME280;10233;50.814;6.590;2022-08-16T01:36:14;99322.81;;;18.86;100.00
20145;BME280;10233;50.814;6.590;2022-08-16T01:37:17;99326.56;;;18.90;100.00
20145;BME280;10233;50.814;6.590;2022-08-16T01:39:34;99324.44;;;18.82;100.00
20145;BME280;10233;50.814;6.590;2022-08-16T01:40:35;99330.66;;;18.83;100.00
20145;BME280;10233;50.814;6.590;2022-08-16T01:41:35;99324.44;;;18.82;100.00
20145;BME280;10233;50.814;6.590;2022-08-16T01:42:37;99328.53;;;18.75;100.00
20145;BME280;10233;50.814;6.590;2022-08-16T01:43:40;99324.47;;;18.77;100.00
20145;BME280;10233;50.814;6.590;2022-08-16T01:44:42;99326.91;;;18.74;100.00
20145;BME280;10233;50.814;6.590;2022-08-16T01:45:43;99318.06;;;18.73;100.00
20145;BME280;10233;50.814;6.590;2022-08-16T01:46:48;99328.34;;;18.61;100.00
20145;BME280;10233;50.814;6.590;2022-08-16T01:47:51;99322.97;;;18.56;100.00
20145;BME280;10233;50.814;6.590;2022-08-16T01:48:58;99325.69;;;18.51;100.00
20145;BME280;10233;50.814;6.590;2022-08-16T01:49:59;99324.06;;;18.55;100.00
20145;BME280;10233;50.814;6.590;2022-08-16T01:51:02;99319.47;;;18.51;100.00
20145;BME280;10233;50.814;6.590;2022-08-16T01:52:07;99316.28;;;18.44;100.00
20145;BME280;10233;50.814;6.590;2022-08-16T01:53:25;99320.88;;;18.38;100.00
20145;BME280;10233;50.814;6.590;2022-08-16T01:54:38;99323.59;;;18.28;100.00
20145;BME280;10233;50.814;6.590;2022-08-16T01:55:40;99323.09;;;18.21;100.00
20145;BME280;10233;50.814;6.590;2022-08-16T01:56:42;99317.72;;;18.16;100.00
20145;BME280;10233;50.814;6.590;2022-08-16T01:57:43;99321.75;;;18.14;100.00
20145;BME280;10233;50.814;6.590;2022-08-16T01:58:43;99318.53;;;18.17;100.00
20145;BME280;10233;50.814;6.590;2022-08-16T01:59:44;99314.50;;;18.14;100.00
20145;BME280;10233;50.814;6.590;2022-08-16T02:00:49;99315.03;;;18.11;100.00
20145;BME280;10233;50.814;6.590;2022-08-16T02:01:51;99322.56;;;18.19;100.00
20145;BME280;10233;50.814;6.590;2022-08-16T02:02:52;99315.56;;;18.13;100.00
20145;BME280;10233;50.814;6.590;2022-08-16T02:03:53;99315.81;;;18.12;100.00
20145;BME280;10233;50.814;6.590;2022-08-16T02:04:53;99312.91;;;18.03;100.00
20145;BME280;10233;50.814;6.590;2022-08-16T02:05:54;99321.53;;;17.95;100.00
20145;BME280;10233;50.814;6.590;2022-08-16T02:06:54;99314.53;;;17.89;100.00
20145;BME280;10233;50.814;6.590;2022-08-16T02:07:55;99320.75;;;17.85;100.00
20145;BME280;10233;50.814;6.590;2022-08-16T02:08:57;99318.06;;;17.75;100.00
20145;BME280;10233;50.814;6.590;2022-08-16T02:09:59;99318.59;;;17.72;100.00
20145;BME280;10233;50.814;6.590;2022-08-16T02:11:07;99325.59;;;17.68;100.00
20145;BME280;10233;50.814;6.590;2022-08-16T02:12:08;99323.72;;;17.63;100.00
20145;BME280;10233;50.814;6.590;2022-08-16T02:13:11;99328.28;;;17.63;100.00
20145;BME280;10233;50.814;6.590;2022-08-16T02:14:13;99324.00;;;17.57;100.00
20145;BME280;10233;50.814;6.590;2022-08-16T02:15:15;99330.47;;;17.56;100.00
20145;BME280;10233;50.814;6.590;2022-08-16T02:16:17;99321.88;;;17.49;100.00
20145;BME280;10233;50.814;6.590;2022-08-16T02:17:18;99331.81;;;17.53;100.00
20145;BME280;10233;50.814;6.590;2022-08-16T02:18:18;99326.44;;;17.53;100.00
20145;BME280;10233;50.814;6.590;2022-08-16T02:19:19;99326.94;;;17.55;100.00
20145;BME280;10233;50.814;6.590;2022-08-16T02:20:20;99321.06;;;17.58;100.00
20145;BME280;10233;50.814;6.590;2022-08-16T02:21:21;99317.56;;;17.48;100.00
20145;BME280;10233;50.814;6.590;2022-08-16T02:22:23;99318.38;;;17.53;100.00
20145;BME280;10233;50.814;6.590;2022-08-16T02:23:24;99325.34;;;17.49;100.00
20145;BME280;10233;50.814;6.590;2022-08-16T02:24:24;99319.44;;;17.47;100.00
20145;BME280;10233;50.814;6.590;2022-08-16T02:25:26;99316.19;;;17.50;100.00
20145;BME280;10233;50.814;6.590;2022-08-16T02:26:26;99322.66;;;17.39;100.00
20145;BME280;10233;50.814;6.590;2022-08-16T02:27:27;99323.97;;;17.32;100.00
20145;BME280;10233;50.814;6.590;2022-08-16T02:28:28;99325.31;;;17.29;100.00
20145;BME280;10233;50.814;6.590;2022-08-16T02:29:30;99327.22;;;17.34;100.00
20145;BME280;10233;50.814;6.590;2022-08-16T02:30:31;99329.09;;;17.23;100.00
20145;BME280;10233;50.814;6.590;2022-08-16T02:31:32;99329.34;;;17.27;100.00
20145;BME280;10233;50.814;6.590;2022-08-16T02:32:33;99328.00;;;17.29;100.00
20145;BME280;10233;50.814;6.590;2022-08-16T02:33:34;99331.22;;;17.21;100.00
20145;BME280;10233;50.814;6.590;2022-08-16T02:34:35;99328.81;;;17.20;100.00
20145;BME280;10233;50.814;6.590;2022-08-16T02:35:36;99323.72;;;17.28;100.00
20145;BME280;10233;50.814;6.590;2022-08-16T02:36:37;99321.56;;;17.25;100.00
20145;BME280;10233;50.814;6.590;2022-08-16T02:37:38;99323.16;;;17.21;100.00
20145;BME280;10233;50.814;6.590;2022-08-16T02:38:39;99314.31;;;17.21;100.00
20145;BME280;10233;50.814;6.590;2022-08-16T02:39:40;99318.34;;;17.23;100.00
20145;BME280;10233;50.814;6.590;2022-08-16T02:40:40;99318.88;;;17.25;100.00
20145;BME280;10233;50.814;6.590;2022-08-16T02:41:43;99316.44;;;17.24;100.00
20145;BME280;10233;50.814;6.590;2022-08-16T02:42:46;99316.72;;;17.32;100.00
20145;BME280;10233;50.814;6.590;2022-08-16T02:43:47;99319.41;;;17.27;100.00
20145;BME280;10233;50.814;6.590;2022-08-16T02:44:48;99316.72;;;17.22;100.00
20145;BME280;10233;50.814;6.590;2022-08-16T02:45:48;99314.03;;;17.22;100.00
20145;BME280;10233;50.814;6.590;2022-08-16T02:46:49;99310.00;;;17.15;100.00
20145;BME280;10233;50.814;6.590;2022-08-16T02:47:52;99314.03;;;17.07;100.00
20145;BME280;10233;50.814;6.590;2022-08-16T02:48:52;99315.63;;;17.03;100.00
20145;BME280;10233;50.814;6.590;2022-08-16T02:49:53;99309.19;;;17.04;100.00
20145;BME280;10233;50.814;6.590;2022-08-16T02:50:54;99313.47;;;17.00;100.00
20145;BME280;10233;50.814;6.590;2022-08-16T02:51:56;99317.75;;;16.96;100.00
20145;BME280;10233;50.814;6.590;2022-08-16T02:52:57;99313.44;;;16.90;100.00
20145;BME280;10233;50.814;6.590;2022-08-16T02:53:58;99318.81;;;16.90;100.00
20145;BME280;10233;50.814;6.590;2022-08-16T02:54:59;99323.66;;;16.88;100.00
20145;BME280;10233;50.814;6.590;2022-08-16T02:56:00;99325.00;;;16.86;100.00
20145;BME280;10233;50.814;6.590;2022-08-16T02:57:01;99313.72;;;16.94;100.00
20145;BME280;10233;50.814;6.590;2022-08-16T02:58:02;99325.28;;;16.89;100.00
20145;BME280;10233;50.814;6.590;2022-08-16T02:59:02;99325.25;;;16.84;100.00
20145;BME280;10233;50.814;6.590;2022-08-16T03:00:06;99323.94;;;16.92;100.00
20145;BME280;10233;50.814;6.590;2022-08-16T03:01:13;99322.06;;;16.97;100.00
20145;BME280;10233;50.814;6.590;2022-08-16T03:02:13;99319.91;;;16.99;100.00
20145;BME280;10233;50.814;6.590;2022-08-16T03:03:14;99320.16;;;16.88;100.00
20145;BME280;10233;50.814;6.590;2022-08-16T03:04:15;99325.25;;;16.84;100.00
20145;BME280;10233;50.814;6.590;2022-08-16T03:05:15;99326.31;;;16.78;100.00
20145;BME280;10233;50.814;6.590;2022-08-16T03:06:17;99327.13;;;16.79;100.00
20145;BME280;10233;50.814;6.590;2022-08-16T03:07:20;99325.25;;;16.74;100.00
20145;BME280;10233;50.814;6.590;2022-08-16T03:08:23;99330.59;;;16.74;100.00
20145;BME280;10233;50.814;6.590;2022-08-16T03:09:24;99323.06;;;16.66;100.00
20145;BME280;10233;50.814;6.590;2022-08-16T03:10:27;99320.94;;;16.68;100.00
20145;BME280;10233;50.814;6.590;2022-08-16T03:11:29;99325.75;;;16.66;100.00
20145;BME280;10233;50.814;6.590;2022-08-16T03:12:31;99326.31;;;16.68;100.00
20145;BME280;10233;50.814;6.590;2022-08-16T03:13:31;99328.44;;;16.66;100.00
20145;BME280;10233;50.814;6.590;2022-08-16T03:14:35;99322.28;;;16.66;100.00
20145;BME280;10233;50.814;6.590;2022-08-16T03:15:38;99325.22;;;16.64;100.00
20145;BME280;10233;50.814;6.590;2022-08-16T03:16:39;99330.00;;;16.62;100.00
20145;BME280;10233;50.814;6.590;2022-08-16T03:17:41;99339.16;;;16.66;100.00
20145;BME280;10233;50.814;6.590;2022-08-16T03:18:42;99334.31;;;16.58;100.00
20145;BME280;10233;50.814;6.590;2022-08-16T03:19:44;99330.81;;;16.58;100.00
20145;BME280;10233;50.814;6.590;2022-08-16T03:20:45;99327.34;;;16.67;100.00
20145;BME280;10233;50.814;6.590;2022-08-16T03:21:46;99332.50;;;16.79;100.00
20145;BME280;10233;50.814;6.590;2022-08-16T03:22:46;99326.31;;;16.73;100.00
20145;BME280;10233;50.814;6.590;2022-08-16T03:23:48;99326.00;;;16.70;100.00
20145;BME280;10233;50.814;6.590;2022-08-16T03:24:49;99330.59;;;16.69;100.00
20145;BME280;10233;50.814;6.590;2022-08-16T03:25:50;99331.69;;;16.73;100.00
20145;BME280;10233;50.814;6.590;2022-08-16T03:26:52;99327.97;;;16.89;100.00
20145;BME280;10233;50.814;6.590;2022-08-16T03:27:53;99334.94;;;16.85;100.00
20145;BME280;10233;50.814;6.590;2022-08-16T03:28:55;99334.09;;;16.80;100.00
20145;BME280;10233;50.814;6.590;2022-08-16T03:30:09;99334.94;;;16.85;100.00
20145;BME280;10233;50.814;6.590;2022-08-16T03:31:10;99330.63;;;16.84;100.00
20145;BME280;10233;50.814;6.590;2022-08-16T03:32:11;99345.13;;;16.78;100.00
20145;BME280;10233;50.814;6.590;2022-08-16T03:33:12;99340.56;;;16.84;100.00
20145;BME280;10233;50.814;6.590;2022-08-16T03:34:20;99335.19;;;16.89;100.00
20145;BME280;10233;50.814;6.590;2022-08-16T03:35:26;99333.06;;;16.86;100.00
20145;BME280;10233;50.814;6.590;2022-08-16T03:36:30;99342.16;;;16.85;100.00
20145;BME280;10233;50.814;6.590;2022-08-16T03:37:35;99328.72;;;16.80;100.00
20145;BME280;10233;50.814;6.590;2022-08-16T03:38:36;99331.69;;;16.78;100.00
20145;BME280;10233;50.814;6.590;2022-08-16T03:39:41;99335.97;;;16.74;100.00
20145;BME280;10233;50.814;6.590;2022-08-16T03:40:41;99339.19;;;16.76;100.00
20145;BME280;10233;50.814;6.590;2022-08-16T03:41:42;99334.91;;;16.75;100.00
20145;BME280;10233;50.814;6.590;2022-08-16T03:42:43;99331.94;;;16.72;100.00
20145;BME280;10233;50.814;6.590;2022-08-16T03:43:43;99340.56;;;16.89;100.00
20145;BME280;10233;50.814;6.590;2022-08-16T03:44:47;99337.06;;;16.78;100.00
20145;BME280;10233;50.814;6.590;2022-08-16T03:45:50;99333.84;;;16.91;100.00
20145;BME280;10233;50.814;6.590;2022-08-16T03:46:51;99329.03;;;16.88;100.00
20145;BME280;10233;50.814;6.590;2022-08-16T03:47:59;99333.88;;;16.96;100.00
20145;BME280;10233;50.814;6.590;2022-08-16T03:49:02;99333.56;;;16.83;100.00
20145;BME280;10233;50.814;6.590;2022-08-16T03:50:03;99333.03;;;16.81;100.00
20145;BME280;10233;50.814;6.590;2022-08-16T03:51:09;99331.97;;;16.82;100.00
20145;BME280;10233;50.814;6.590;2022-08-16T03:52:14;99332.50;;;16.79;100.00
20145;BME280;10233;50.814;6.590;2022-08-16T03:53:16;99331.69;;;16.73;100.00
20145;BME280;10233;50.814;6.590;2022-08-16T03:54:16;99334.06;;;16.70;100.00
20145;BME280;10233;50.814;6.590;2022-08-16T03:55:18;99337.34;;;16.82;100.00
20145;BME280;10233;50.814;6.590;2022-08-16T03:56:19;99337.88;;;16.84;100.00
20145;BME280;10233;50.814;6.590;2022-08-16T03:57:21;99341.63;;;16.78;100.00
20145;BME280;10233;50.814;6.590;2022-08-16T03:58:21;99336.53;;;16.81;100.00
20145;BME280;10233;50.814;6.590;2022-08-16T03:59:22;99336.53;;;16.91;100.00
20145;BME280;10233;50.814;6.590;2022-08-16T04:00:29;99331.97;;;16.77;100.00
20145;BME280;10233;50.814;6.590;2022-08-16T04:01:31;99340.81;;;16.87;100.00
20145;BME280;10233;50.814;6.590;2022-08-16T04:02:31;99339.47;;;16.80;100.00
20145;BME280;10233;50.814;6.590;2022-08-16T04:03:34;99338.13;;;16.82;100.00
20145;BME280;10233;50.814;6.590;2022-08-16T04:04:35;99338.41;;;16.81;100.00
20145;BME280;10233;50.814;6.590;2022-08-16T04:05:44;99340.81;;;16.77;100.00
20145;BME280;10233;50.814;6.590;2022-08-16T04:06:47;99342.44;;;16.78;100.00
20145;BME280;10233;50.814;6.590;2022-08-16T04:07:47;99333.81;;;16.71;100.00
20145;BME280;10233;50.814;6.590;2022-08-16T04:08:48;99338.69;;;16.79;100.00
20145;BME280;10233;50.814;6.590;2022-08-16T04:09:49;99335.97;;;16.69;100.00
20145;BME280;10233;50.814;6.590;2022-08-16T04:10:54;99336.50;;;16.71;100.00
20145;BME280;10233;50.814;6.590;2022-08-16T04:11:55;99341.03;;;16.61;100.00
20145;BME280;10233;50.814;6.590;2022-08-16T04:12:57;99332.69;;;16.62;100.00
20145;BME280;10233;50.814;6.590;2022-08-16T04:13:57;99342.91;;;16.60;100.00
20145;BME280;10233;50.814;6.590;2022-08-16T04:15:01;99341.28;;;16.54;100.00
20145;BME280;10233;50.814;6.590;2022-08-16T04:16:02;99344.03;;;16.69;100.00
20145;BME280;10233;50.814;6.590;2022-08-16T04:17:03;99344.50;;;16.61;100.00
20145;BME280;10233;50.814;6.590;2022-08-16T04:18:09;99351.22;;;16.64;100.00
20145;BME280;10233;50.814;6.590;2022-08-16T04:19:10;99344.50;;;16.56;100.00
20145;BME280;10233;50.814;6.590;2022-08-16T04:20:12;99341.81;;;16.56;100.00
20145;BME280;10233;50.814;6.590;2022-08-16T04:21:13;99347.16;;;16.51;100.00
20145;BME280;10233;50.814;6.590;2022-08-16T04:22:14;99355.19;;;16.46;100.00
20145;BME280;10233;50.814;6.590;2022-08-16T04:23:22;99352.28;;;16.53;100.00
20145;BME280;10233;50.814;6.590;2022-08-16T04:24:23;99357.34;;;16.44;100.00
20145;BME280;10233;50.814;6.590;2022-08-16T04:25:24;99353.59;;;16.50;100.00
20145;BME280;10233;50.814;6.590;2022-08-16T04:26:25;99352.50;;;16.41;100.00
20145;BME280;10233;50.814;6.590;2022-08-16T04:27:25;99357.25;;;16.34;100.00
20145;BME280;10233;50.814;6.590;2022-08-16T04:28:26;99353.03;;;16.43;100.00
20145;BME280;10233;50.814;6.590;2022-08-16T04:29:27;99358.09;;;16.40;100.00
20145;BME280;10233;50.814;6.590;2022-08-16T04:30:29;99354.38;;;16.46;100.00
20145;BME280;10233;50.814;6.590;2022-08-16T04:31:30;99365.41;;;16.49;100.00
20145;BME280;10233;50.814;6.590;2022-08-16T04:32:30;99358.16;;;16.55;100.00
20145;BME280;10233;50.814;6.590;2022-08-16T04:33:31;99352.00;;;16.54;100.00
20145;BME280;10233;50.814;6.590;2022-08-16T04:34:35;99355.00;;;16.63;100.00
20145;BME280;10233;50.814;6.590;2022-08-16T04:35:36;99361.09;;;16.48;100.00
20145;BME280;10233;50.814;6.590;2022-08-16T04:36:37;99362.44;;;16.51;100.00
20145;BME280;10233;50.814;6.590;2022-08-16T04:37:38;99359.00;;;16.55;100.00
20145;BME280;10233;50.814;6.590;2022-08-16T04:38:47;99355.75;;;16.53;100.00
20145;BME280;10233;50.814;6.590;2022-08-16T04:39:48;99360.31;;;16.48;100.00
20145;BME280;10233;50.814;6.590;2022-08-16T04:40:50;99355.22;;;16.56;100.00
20145;BME280;10233;50.814;6.590;2022-08-16T04:41:52;99357.84;;;16.41;100.00
20145;BME280;10233;50.814;6.590;2022-08-16T04:42:54;99361.53;;;16.30;100.00
20145;BME280;10233;50.814;6.590;2022-08-16T04:43:57;99360.44;;;16.26;100.00
20145;BME280;10233;50.814;6.590;2022-08-16T04:44:57;99361.00;;;16.33;100.00
20145;BME280;10233;50.814;6.590;2022-08-16T04:46:02;99365.38;;;16.39;100.00
20145;BME280;10233;50.814;6.590;2022-08-16T04:47:06;99366.44;;;16.43;100.00
20145;BME280;10233;50.814;6.590;2022-08-16T04:48:07;99365.03;;;16.36;100.00
20145;BME280;10233;50.814;6.590;2022-08-16T04:49:17;99363.00;;;16.48;100.00
20145;BME280;10233;50.814;6.590;2022-08-16T04:50:21;99365.94;;;16.46;100.00
20145;BME280;10233;50.814;6.590;2022-08-16T04:51:31;99369.41;;;16.42;100.00
20145;BME280;10233;50.814;6.590;2022-08-16T04:52:32;99372.53;;;16.34;100.00
20145;BME280;10233;50.814;6.590;2022-08-16T04:53:33;99373.63;;;16.33;100.00
20145;BME280;10233;50.814;6.590;2022-08-16T04:54:34;99378.72;;;16.34;100.00
20145;BME280;10233;50.814;6.590;2022-08-16T04:55:34;99368.50;;;16.31;100.00
20145;BME280;10233;50.814;6.590;2022-08-16T04:56:35;99381.91;;;16.31;100.00
20145;BME280;10233;50.814;6.590;2022-08-16T04:57:36;99371.44;;;16.30;100.00
20145;BME280;10233;50.814;6.590;2022-08-16T04:58:37;99375.75;;;16.36;100.00
20145;BME280;10233;50.814;6.590;2022-08-16T04:59:38;99377.72;;;16.40;100.00
20145;BME280;10233;50.814;6.590;2022-08-16T05:00:38;99375.06;;;16.50;100.00
20145;BME280;10233;50.814;6.590;2022-08-16T05:01:42;99375.59;;;16.52;100.00
20145;BME280;10233;50.814;6.590;2022-08-16T05:02:43;99377.22;;;16.53;100.00
20145;BME280;10233;50.814;6.590;2022-08-16T05:03:45;99378.63;;;16.61;100.00
20145;BME280;10233;50.814;6.590;2022-08-16T05:04:48;99369.50;;;16.67;100.00
20145;BME280;10233;50.814;6.590;2022-08-16T05:05:49;99378.38;;;16.72;100.00
20145;BME280;10233;50.814;6.590;2022-08-16T05:06:54;99376.81;;;16.86;100.00
20145;BME280;10233;50.814;6.590;2022-08-16T05:08:03;99374.94;;;16.87;100.00
20145;BME280;10233;50.814;6.590;2022-08-16T05:09:05;99376.31;;;16.99;100.00
20145;BME280;10233;50.814;6.590;2022-08-16T05:10:07;99374.44;;;16.95;100.00
20145;BME280;10233;50.814;6.590;2022-08-16T05:11:10;99377.41;;;16.98;100.00
20145;BME280;10233;50.814;6.590;2022-08-16T05:12:11;99369.06;;;16.95;100.00
20145;BME280;10233;50.814;6.590;2022-08-16T05:13:12;99376.06;;;17.06;100.00
20145;BME280;10233;50.814;6.590;2022-08-16T05:14:14;99381.16;;;16.97;100.00
20145;BME280;10233;50.814;6.590;2022-08-16T05:15:15;99381.44;;;17.01;100.00
20145;BME280;10233;50.814;6.590;2022-08-16T05:16:23;99387.31;;;16.93;100.00
20145;BME280;10233;50.814;6.590;2022-08-16T05:17:30;99384.41;;;17.04;100.00
20145;BME280;10233;50.814;6.590;2022-08-16T05:18:32;99387.38;;;17.13;100.00
20145;BME280;10233;50.814;6.590;2022-08-16T05:19:34;99375.28;;;17.20;100.00
20145;BME280;10233;50.814;6.590;2022-08-16T05:20:46;99377.97;;;17.20;100.00
20145;BME280;10233;50.814;6.590;2022-08-16T05:21:47;99378.25;;;17.24;100.00
20145;BME280;10233;50.814;6.590;2022-08-16T05:22:47;99381.75;;;17.34;100.00
20145;BME280;10233;50.814;6.590;2022-08-16T05:23:52;99379.88;;;17.35;100.00
20145;BME280;10233;50.814;6.590;2022-08-16T05:24:52;99381.50;;;17.31;100.00
20145;BME280;10233;50.814;6.590;2022-08-16T05:25:53;99387.41;;;17.38;100.00
20145;BME280;10233;50.814;6.590;2022-08-16T05:26:54;99380.94;;;17.29;100.00
20145;BME280;10233;50.814;6.590;2022-08-16T05:27:55;99381.00;;;17.39;100.00
20145;BME280;10233;50.814;6.590;2022-08-16T05:28:58;99383.16;;;17.47;100.00
20145;BME280;10233;50.814;6.590;2022-08-16T05:29:59;99388.00;;;17.45;100.00
20145;BME280;10233;50.814;6.590;2022-08-16T05:31:02;99389.88;;;17.44;100.00